sensor_id;sensor_type;location;lat;lon;timestamp;P1;durP1;ratioP1;P2;durP2;ratioP2
51236;SDS011;37312;47.550;18.818;2022-08-19T00:01:18;10.43;;;8.45;;
51236;SDS011;37312;47.550;18.818;2022-08-19T00:03:47;7.95;;;7.30;;
51236;SDS011;37312;47.550;18.818;2022-08-19T00:06:14;7.28;;;6.75;;
51236;SDS011;37312;47.550;18.818;2022-08-19T00:08:41;8.85;;;7.90;;
51236;SDS011;37312;47.550;18.818;2022-08-19T00:11:07;8.40;;;7.60;;
51236;SDS011;37312;47.550;18.818;2022-08-19T00:13:33;8.35;;;7.57;;
51236;SDS011;37312;47.550;18.818;2022-08-19T00:15:59;8.15;;;7.30;;
51236;SDS011;37312;47.550;18.818;2022-08-19T00:18:26;8.13;;;7.43;;
51236;SDS011;37312;47.550;18.818;2022-08-19T00:20:52;9.80;;;8.90;;
51236;SDS011;37312;47.550;18.818;2022-08-19T00:23:18;9.57;;;7.45;;
51236;SDS011;37312;47.550;18.818;2022-08-19T00:25:44;9.40;;;8.43;;
51236;SDS011;37312;47.550;18.818;2022-08-19T00:28:10;8.30;;;7.53;;
51236;SDS011;37312;47.550;18.818;2022-08-19T00:30:36;7.97;;;6.47;;
51236;SDS011;37312;47.550;18.818;2022-08-19T00:33:03;8.82;;;8.13;;
51236;SDS011;37312;47.550;18.818;2022-08-19T00:35:28;7.43;;;6.82;;
51236;SDS011;37312;47.550;18.818;2022-08-19T00:37:55;8.30;;;7.70;;
51236;SDS011;37312;47.550;18.818;2022-08-19T00:40:21;7.75;;;6.97;;
51236;SDS011;37312;47.550;18.818;2022-08-19T00:42:47;9.27;;;8.48;;
51236;SDS011;37312;47.550;18.818;2022-08-19T00:45:15;8.93;;;7.72;;
51236;SDS011;37312;47.550;18.818;2022-08-19T00:47:44;10.07;;;7.75;;
51236;SDS011;37312;47.550;18.818;2022-08-19T00:50:11;8.00;;;7.40;;
51236;SDS011;37312;47.550;18.818;2022-08-19T00:52:40;8.73;;;8.02;;
51236;SDS011;37312;47.550;18.818;2022-08-19T00:55:16;8.23;;;7.43;;
51236;SDS011;37312;47.550;18.818;2022-08-19T00:57:48;8.35;;;7.60;;
51236;SDS011;37312;47.550;18.818;2022-08-19T01:00:20;8.55;;;7.65;;
51236;SDS011;37312;47.550;18.818;2022-08-19T01:02:47;8.40;;;7.70;;
51236;SDS011;37312;47.550;18.818;2022-08-19T01:05:18;8.10;;;7.35;;
51236;SDS011;37312;47.550;18.818;2022-08-19T01:07:47;7.72;;;7.10;;
51236;SDS011;37312;47.550;18.818;2022-08-19T01:10:15;8.40;;;7.70;;
51236;SDS011;37312;47.550;18.818;2022-08-19T01:12:45;10.63;;;9.07;;
51236;SDS011;37312;47.550;18.818;2022-08-19T01:15:14;8.73;;;7.82;;
51236;SDS011;37312;47.550;18.818;2022-08-19T01:17:48;10.55;;;8.60;;
51236;SDS011;37312;47.550;18.818;2022-08-19T01:20:16;7.62;;;6.90;;
51236;SDS011;37312;47.550;18.818;2022-08-19T01:22:55;8.88;;;7.05;;
51236;SDS011;37312;47.550;18.818;2022-08-19T01:25:33;7.30;;;6.70;;
51236;SDS011;37312;47.550;18.818;2022-08-19T01:28:04;8.38;;;7.53;;
51236;SDS011;37312;47.550;18.818;2022-08-19T01:30:32;7.60;;;6.82;;
51236;SDS011;37312;47.550;18.818;2022-08-19T01:32:59;7.53;;;6.68;;
51236;SDS011;37312;47.550;18.818;2022-08-19T01:35:27;11.63;;;7.57;;
51236;SDS011;37312;47.550;18.818;2022-08-19T01:37:57;8.30;;;7.50;;
51236;SDS011;37312;47.550;18.818;2022-08-19T01:40:31;9.00;;;7.65;;
51236;SDS011;37312;47.550;18.818;2022-08-19T01:42:58;10.20;;;7.22;;
51236;SDS011;37312;47.550;18.818;2022-08-19T01:45:26;9.63;;;7.60;;
51236;SDS011;37312;47.550;18.818;2022-08-19T01:47:54;6.68;;;6.15;;
51236;SDS011;37312;47.550;18.818;2022-08-19T01:50:21;13.18;;;7.43;;
51236;SDS011;37312;47.550;18.818;2022-08-19T01:52:47;7.82;;;7.12;;
51236;SDS011;37312;47.550;18.818;2022-08-19T01:55:20;8.23;;;7.53;;
51236;SDS011;37312;47.550;18.818;2022-08-19T01:57:50;9.23;;;8.18;;
51236;SDS011;37312;47.550;18.818;2022-08-19T02:00:20;8.25;;;7.55;;
51236;SDS011;37312;47.550;18.818;2022-08-19T02:02:48;8.07;;;7.05;;
51236;SDS011;37312;47.550;18.818;2022-08-19T02:05:14;9.15;;;8.27;;
51236;SDS011;37312;47.550;18.818;2022-08-19T02:07:41;8.55;;;7.00;;
51236;SDS011;37312;47.550;18.818;2022-08-19T02:10:09;7.80;;;7.10;;
51236;SDS011;37312;47.550;18.818;2022-08-19T02:12:38;11.18;;;8.15;;
51236;SDS011;37312;47.550;18.818;2022-08-19T02:15:05;8.25;;;7.45;;
51236;SDS011;37312;47.550;18.818;2022-08-19T02:17:31;7.78;;;7.07;;
51236;SDS011;37312;47.550;18.818;2022-08-19T02:19:57;8.75;;;7.95;;
51236;SDS011;37312;47.550;18.818;2022-08-19T02:22:24;8.10;;;7.32;;
51236;SDS011;37312;47.550;18.818;2022-08-19T02:24:53;7.87;;;7.10;;
51236;SDS011;37312;47.550;18.818;2022-08-19T02:27:21;8.55;;;7.85;;
51236;SDS011;37312;47.550;18.818;2022-08-19T02:29:48;7.25;;;6.57;;
51236;SDS011;37312;47.550;18.818;2022-08-19T02:32:16;7.15;;;6.55;;
51236;SDS011;37312;47.550;18.818;2022-08-19T02:34:45;9.35;;;8.27;;
51236;SDS011;37312;47.550;18.818;2022-08-19T02:37:12;7.12;;;6.53;;
51236;SDS011;37312;47.550;18.818;2022-08-19T02:39:58;8.82;;;7.10;;
51236;SDS011;37312;47.550;18.818;2022-08-19T02:42:24;8.02;;;7.43;;
51236;SDS011;37312;47.550;18.818;2022-08-19T02:44:50;7.93;;;6.68;;
51236;SDS011;37312;47.550;18.818;2022-08-19T02:47:17;8.13;;;7.50;;
51236;SDS011;37312;47.550;18.818;2022-08-19T02:49:44;7.55;;;6.82;;
51236;SDS011;37312;47.550;18.818;2022-08-19T02:52:11;8.45;;;7.60;;
51236;SDS011;37312;47.550;18.818;2022-08-19T02:54:37;7.93;;;7.32;;
51236;SDS011;37312;47.550;18.818;2022-08-19T02:57:04;6.60;;;6.05;;
51236;SDS011;37312;47.550;18.818;2022-08-19T02:59:31;8.32;;;7.22;;
51236;SDS011;37312;47.550;18.818;2022-08-19T03:01:58;8.57;;;7.55;;
51236;SDS011;37312;47.550;18.818;2022-08-19T03:04:24;6.25;;;5.70;;
51236;SDS011;37312;47.550;18.818;2022-08-19T03:06:50;9.23;;;7.00;;
51236;SDS011;37312;47.550;18.818;2022-08-19T03:09:17;7.70;;;7.10;;
51236;SDS011;37312;47.550;18.818;2022-08-19T03:11:45;9.93;;;8.48;;
51236;SDS011;37312;47.550;18.818;2022-08-19T03:14:11;8.63;;;7.62;;
51236;SDS011;37312;47.550;18.818;2022-08-19T03:16:45;7.60;;;6.97;;
51236;SDS011;37312;47.550;18.818;2022-08-19T03:19:15;8.65;;;7.93;;
51236;SDS011;37312;47.550;18.818;2022-08-19T03:21:42;10.38;;;8.07;;
51236;SDS011;37312;47.550;18.818;2022-08-19T03:24:12;7.03;;;6.37;;
51236;SDS011;37312;47.550;18.818;2022-08-19T03:26:51;8.60;;;7.80;;
51236;SDS011;37312;47.550;18.818;2022-08-19T03:29:23;8.55;;;7.75;;
51236;SDS011;37312;47.550;18.818;2022-08-19T03:31:51;8.88;;;8.18;;
51236;SDS011;37312;47.550;18.818;2022-08-19T03:34:24;8.93;;;7.85;;
51236;SDS011;37312;47.550;18.818;2022-08-19T03:37:05;11.25;;;7.75;;
51236;SDS011;37312;47.550;18.818;2022-08-19T03:39:33;8.43;;;7.72;;
51236;SDS011;37312;47.550;18.818;2022-08-19T03:42:00;8.68;;;7.97;;
51236;SDS011;37312;47.550;18.818;2022-08-19T03:44:28;7.00;;;6.40;;
51236;SDS011;37312;47.550;18.818;2022-08-19T03:46:56;8.18;;;7.35;;
51236;SDS011;37312;47.550;18.818;2022-08-19T03:49:25;8.93;;;8.07;;
51236;SDS011;37312;47.550;18.818;2022-08-19T03:51:53;7.82;;;7.10;;
51236;SDS011;37312;47.550;18.818;2022-08-19T03:54:20;9.30;;;6.82;;
51236;SDS011;37312;47.550;18.818;2022-08-19T03:56:48;7.65;;;7.03;;
51236;SDS011;37312;47.550;18.818;2022-08-19T03:59:18;12.00;;;7.62;;
51236;SDS011;37312;47.550;18.818;2022-08-19T04:01:46;10.05;;;7.00;;
51236;SDS011;37312;47.550;18.818;2022-08-19T04:04:12;7.25;;;6.60;;
51236;SDS011;37312;47.550;18.818;2022-08-19T04:06:38;11.57;;;6.60;;
51236;SDS011;37312;47.550;18.818;2022-08-19T04:09:06;8.32;;;7.65;;
51236;SDS011;37312;47.550;18.818;2022-08-19T04:11:37;8.02;;;7.15;;
51236;SDS011;37312;47.550;18.818;2022-08-19T04:14:10;7.20;;;6.50;;
51236;SDS011;37312;47.550;18.818;2022-08-19T04:16:40;8.65;;;7.32;;
51236;SDS011;37312;47.550;18.818;2022-08-19T04:19:06;6.65;;;6.07;;
51236;SDS011;37312;47.550;18.818;2022-08-19T04:21:32;9.63;;;8.73;;
51236;SDS011;37312;47.550;18.818;2022-08-19T04:23:59;7.70;;;7.00;;
51236;SDS011;37312;47.550;18.818;2022-08-19T04:26:26;7.28;;;6.72;;
51236;SDS011;37312;47.550;18.818;2022-08-19T04:28:57;7.32;;;6.57;;
51236;SDS011;37312;47.550;18.818;2022-08-19T04:31:26;6.62;;;6.05;;
51236;SDS011;37312;47.550;18.818;2022-08-19T04:33:57;8.77;;;7.35;;
51236;SDS011;37312;47.550;18.818;2022-08-19T04:36:26;7.40;;;6.82;;
51236;SDS011;37312;47.550;18.818;2022-08-19T04:38:55;7.95;;;7.25;;
51236;SDS011;37312;47.550;18.818;2022-08-19T04:41:22;8.45;;;7.62;;
51236;SDS011;37312;47.550;18.818;2022-08-19T04:44:07;9.75;;;7.25;;
51236;SDS011;37312;47.550;18.818;2022-08-19T04:46:34;10.00;;;7.20;;
51236;SDS011;37312;47.550;18.818;2022-08-19T04:49:00;7.70;;;7.10;;
51236;SDS011;37312;47.550;18.818;2022-08-19T04:51:30;18.80;;;7.75;;
51236;SDS011;37312;47.550;18.818;2022-08-19T04:53:58;8.68;;;7.32;;
51236;SDS011;37312;47.550;18.818;2022-08-19T04:56:25;7.60;;;6.75;;
51236;SDS011;37312;47.550;18.818;2022-08-19T04:58:52;9.27;;;7.72;;
51236;SDS011;37312;47.550;18.818;2022-08-19T05:01:23;12.50;;;8.23;;
51236;SDS011;37312;47.550;18.818;2022-08-19T05:03:51;6.90;;;6.20;;
51236;SDS011;37312;47.550;18.818;2022-08-19T05:06:18;7.72;;;7.12;;
51236;SDS011;37312;47.550;18.818;2022-08-19T05:08:46;8.50;;;7.80;;
51236;SDS011;37312;47.550;18.818;2022-08-19T05:13:39;8.45;;;7.62;;
51236;SDS011;37312;47.550;18.818;2022-08-19T05:16:05;7.40;;;6.75;;
51236;SDS011;37312;47.550;18.818;2022-08-19T05:18:31;7.95;;;7.25;;
51236;SDS011;37312;47.550;18.818;2022-08-19T05:21:16;15.57;;;7.07;;
51236;SDS011;37312;47.550;18.818;2022-08-19T05:24:02;10.35;;;7.50;;
51236;SDS011;37312;47.550;18.818;2022-08-19T05:26:37;7.93;;;7.20;;
51236;SDS011;37312;47.550;18.818;2022-08-19T05:29:04;7.15;;;6.45;;
51236;SDS011;37312;47.550;18.818;2022-08-19T05:31:32;8.02;;;6.87;;
51236;SDS011;37312;47.550;18.818;2022-08-19T05:33:59;7.60;;;6.87;;
51236;SDS011;37312;47.550;18.818;2022-08-19T05:36:25;8.77;;;7.97;;
51236;SDS011;37312;47.550;18.818;2022-08-19T05:38:52;9.95;;;7.40;;
51236;SDS011;37312;47.550;18.818;2022-08-19T05:41:19;7.30;;;6.57;;
51236;SDS011;37312;47.550;18.818;2022-08-19T05:43:45;13.50;;;7.78;;
51236;SDS011;37312;47.550;18.818;2022-08-19T05:46:18;6.85;;;6.25;;
51236;SDS011;37312;47.550;18.818;2022-08-19T05:48:45;6.78;;;6.28;;
51236;SDS011;37312;47.550;18.818;2022-08-19T05:51:11;8.60;;;7.60;;
51236;SDS011;37312;47.550;18.818;2022-08-19T05:53:38;7.70;;;6.93;;
51236;SDS011;37312;47.550;18.818;2022-08-19T05:56:07;7.35;;;6.78;;
51236;SDS011;37312;47.550;18.818;2022-08-19T05:58:36;7.90;;;7.18;;
51236;SDS011;37312;47.550;18.818;2022-08-19T06:01:03;7.53;;;6.82;;
51236;SDS011;37312;47.550;18.818;2022-08-19T06:03:35;7.05;;;6.32;;
51236;SDS011;37312;47.550;18.818;2022-08-19T06:06:03;12.13;;;7.00;;
51236;SDS011;37312;47.550;18.818;2022-08-19T06:08:30;6.68;;;6.18;;
51236;SDS011;37312;47.550;18.818;2022-08-19T06:10:57;7.95;;;7.25;;
51236;SDS011;37312;47.550;18.818;2022-08-19T06:13:23;12.40;;;6.90;;
51236;SDS011;37312;47.550;18.818;2022-08-19T06:15:49;8.15;;;7.07;;
51236;SDS011;37312;47.550;18.818;2022-08-19T06:18:15;7.85;;;6.80;;
51236;SDS011;37312;47.550;18.818;2022-08-19T06:20:42;7.20;;;6.57;;
51236;SDS011;37312;47.550;18.818;2022-08-19T06:23:08;6.53;;;5.62;;
51236;SDS011;37312;47.550;18.818;2022-08-19T06:25:34;7.20;;;6.72;;
51236;SDS011;37312;47.550;18.818;2022-08-19T06:28:01;5.50;;;5.10;;
51236;SDS011;37312;47.550;18.818;2022-08-19T06:30:28;8.73;;;5.82;;
51236;SDS011;37312;47.550;18.818;2022-08-19T06:32:55;8.27;;;6.40;;
51236;SDS011;37312;47.550;18.818;2022-08-19T06:35:21;10.27;;;6.47;;
51236;SDS011;37312;47.550;18.818;2022-08-19T06:37:47;7.53;;;5.53;;
51236;SDS011;37312;47.550;18.818;2022-08-19T06:40:14;5.80;;;5.28;;
51236;SDS011;37312;47.550;18.818;2022-08-19T06:42:40;10.50;;;5.93;;
51236;SDS011;37312;47.550;18.818;2022-08-19T06:45:06;5.57;;;5.07;;
51236;SDS011;37312;47.550;18.818;2022-08-19T06:47:33;5.75;;;5.35;;
51236;SDS011;37312;47.550;18.818;2022-08-19T06:49:59;7.25;;;5.68;;
51236;SDS011;37312;47.550;18.818;2022-08-19T06:52:34;6.18;;;5.57;;
51236;SDS011;37312;47.550;18.818;2022-08-19T06:55:01;4.47;;;4.07;;
51236;SDS011;37312;47.550;18.818;2022-08-19T06:57:27;5.35;;;4.85;;
51236;SDS011;37312;47.550;18.818;2022-08-19T06:59:58;7.15;;;5.35;;
51236;SDS011;37312;47.550;18.818;2022-08-19T07:02:25;12.73;;;5.95;;
51236;SDS011;37312;47.550;18.818;2022-08-19T07:04:52;6.22;;;5.60;;
51236;SDS011;37312;47.550;18.818;2022-08-19T07:07:19;5.37;;;4.95;;
51236;SDS011;37312;47.550;18.818;2022-08-19T07:09:46;5.97;;;5.45;;
51236;SDS011;37312;47.550;18.818;2022-08-19T07:14:41;5.93;;;5.43;;
51236;SDS011;37312;47.550;18.818;2022-08-19T07:17:09;6.00;;;5.50;;
51236;SDS011;37312;47.550;18.818;2022-08-19T07:19:36;7.30;;;5.45;;
51236;SDS011;37312;47.550;18.818;2022-08-19T07:22:04;7.50;;;5.75;;
51236;SDS011;37312;47.550;18.818;2022-08-19T07:24:32;6.07;;;5.40;;
51236;SDS011;37312;47.550;18.818;2022-08-19T07:27:00;6.00;;;4.90;;
51236;SDS011;37312;47.550;18.818;2022-08-19T07:29:29;5.68;;;4.95;;
51236;SDS011;37312;47.550;18.818;2022-08-19T07:31:56;5.62;;;5.15;;
51236;SDS011;37312;47.550;18.818;2022-08-19T07:34:24;8.02;;;5.72;;
51236;SDS011;37312;47.550;18.818;2022-08-19T07:36:51;5.50;;;5.10;;
51236;SDS011;37312;47.550;18.818;2022-08-19T07:39:28;5.87;;;5.25;;
51236;SDS011;37312;47.550;18.818;2022-08-19T07:41:57;6.32;;;5.72;;
51236;SDS011;37312;47.550;18.818;2022-08-19T07:44:25;6.35;;;5.50;;
51236;SDS011;37312;47.550;18.818;2022-08-19T07:46:53;5.37;;;4.90;;
51236;SDS011;37312;47.550;18.818;2022-08-19T07:49:21;7.00;;;5.68;;
51236;SDS011;37312;47.550;18.818;2022-08-19T07:51:49;8.25;;;5.90;;
51236;SDS011;37312;47.550;18.818;2022-08-19T07:54:27;4.78;;;4.40;;
51236;SDS011;37312;47.550;18.818;2022-08-19T07:56:54;5.15;;;4.72;;
51236;SDS011;37312;47.550;18.818;2022-08-19T07:59:21;7.32;;;4.35;;
51236;SDS011;37312;47.550;18.818;2022-08-19T08:01:49;5.95;;;5.45;;
51236;SDS011;37312;47.550;18.818;2022-08-19T08:04:17;13.62;;;6.43;;
51236;SDS011;37312;47.550;18.818;2022-08-19T08:07:02;5.28;;;4.87;;
51236;SDS011;37312;47.550;18.818;2022-08-19T08:09:48;6.15;;;5.28;;
51236;SDS011;37312;47.550;18.818;2022-08-19T08:12:19;5.18;;;4.78;;
51236;SDS011;37312;47.550;18.818;2022-08-19T08:14:50;11.60;;;5.03;;
51236;SDS011;37312;47.550;18.818;2022-08-19T08:17:22;5.53;;;4.78;;
51236;SDS011;37312;47.550;18.818;2022-08-19T08:19:50;6.80;;;5.12;;
51236;SDS011;37312;47.550;18.818;2022-08-19T08:22:17;5.80;;;5.30;;
51236;SDS011;37312;47.550;18.818;2022-08-19T08:25:05;8.75;;;4.57;;
51236;SDS011;37312;47.550;18.818;2022-08-19T08:27:37;5.50;;;5.10;;
51236;SDS011;37312;47.550;18.818;2022-08-19T08:30:09;12.73;;;6.03;;
51236;SDS011;37312;47.550;18.818;2022-08-19T08:32:37;6.30;;;5.30;;
51236;SDS011;37312;47.550;18.818;2022-08-19T08:35:05;7.05;;;6.45;;
51236;SDS011;37312;47.550;18.818;2022-08-19T08:37:32;6.25;;;5.47;;
51236;SDS011;37312;47.550;18.818;2022-08-19T08:40:01;5.55;;;4.95;;
51236;SDS011;37312;47.550;18.818;2022-08-19T08:42:31;5.10;;;4.75;;
51236;SDS011;37312;47.550;18.818;2022-08-19T08:45:03;5.37;;;4.97;;
51236;SDS011;37312;47.550;18.818;2022-08-19T08:47:40;6.82;;;5.28;;
51236;SDS011;37312;47.550;18.818;2022-08-19T08:50:12;7.35;;;5.37;;
51236;SDS011;37312;47.550;18.818;2022-08-19T08:52:46;6.75;;;6.07;;
51236;SDS011;37312;47.550;18.818;2022-08-19T08:55:18;6.47;;;5.90;;
51236;SDS011;37312;47.550;18.818;2022-08-19T09:00:33;6.37;;;5.05;;
51236;SDS011;37312;47.550;18.818;2022-08-19T09:03:02;5.50;;;5.10;;
51236;SDS011;37312;47.550;18.818;2022-08-19T09:05:42;9.55;;;4.50;;
51236;SDS011;37312;47.550;18.818;2022-08-19T09:10:48;5.30;;;4.80;;
51236;SDS011;37312;47.550;18.818;2022-08-19T09:16:11;5.95;;;5.55;;
51236;SDS011;37312;47.550;18.818;2022-08-19T09:18:44;5.25;;;4.85;;
51236;SDS011;37312;47.550;18.818;2022-08-19T09:21:18;6.78;;;5.70;;
51236;SDS011;37312;47.550;18.818;2022-08-19T09:23:45;15.18;;;5.68;;
51236;SDS011;37312;47.550;18.818;2022-08-19T09:26:13;5.70;;;5.15;;
51236;SDS011;37312;47.550;18.818;2022-08-19T09:28:41;13.62;;;5.07;;
51236;SDS011;37312;47.550;18.818;2022-08-19T09:31:12;5.65;;;5.05;;
51236;SDS011;37312;47.550;18.818;2022-08-19T09:33:39;5.82;;;5.22;;
51236;SDS011;37312;47.550;18.818;2022-08-19T09:36:07;5.80;;;5.30;;
51236;SDS011;37312;47.550;18.818;2022-08-19T09:38:35;9.70;;;5.53;;
51236;SDS011;37312;47.550;18.818;2022-08-19T09:41:05;16.40;;;5.37;;
51236;SDS011;37312;47.550;18.818;2022-08-19T09:43:39;13.07;;;5.60;;
51236;SDS011;37312;47.550;18.818;2022-08-19T09:46:07;5.97;;;4.68;;
51236;SDS011;37312;47.550;18.818;2022-08-19T09:48:35;5.50;;;5.00;;
51236;SDS011;37312;47.550;18.818;2022-08-19T09:51:06;8.07;;;6.15;;
51236;SDS011;37312;47.550;18.818;2022-08-19T09:53:34;4.80;;;4.43;;
51236;SDS011;37312;47.550;18.818;2022-08-19T09:56:00;7.12;;;5.50;;
51236;SDS011;37312;47.550;18.818;2022-08-19T09:58:27;10.45;;;6.62;;
51236;SDS011;37312;47.550;18.818;2022-08-19T10:00:56;7.75;;;5.75;;
51236;SDS011;37312;47.550;18.818;2022-08-19T10:03:24;13.57;;;5.45;;
51236;SDS011;37312;47.550;18.818;2022-08-19T10:05:50;5.35;;;4.80;;
51236;SDS011;37312;47.550;18.818;2022-08-19T10:08:17;6.25;;;5.75;;
51236;SDS011;37312;47.550;18.818;2022-08-19T10:10:46;6.07;;;5.57;;
51236;SDS011;37312;47.550;18.818;2022-08-19T10:13:14;5.95;;;5.35;;
51236;SDS011;37312;47.550;18.818;2022-08-19T10:15:41;7.32;;;6.22;;
51236;SDS011;37312;47.550;18.818;2022-08-19T10:18:07;6.25;;;5.80;;
51236;SDS011;37312;47.550;18.818;2022-08-19T10:20:33;5.72;;;5.22;;
51236;SDS011;37312;47.550;18.818;2022-08-19T10:23:01;6.28;;;5.55;;
51236;SDS011;37312;47.550;18.818;2022-08-19T10:25:28;5.10;;;4.70;;
51236;SDS011;37312;47.550;18.818;2022-08-19T10:27:54;8.10;;;6.22;;
51236;SDS011;37312;47.550;18.818;2022-08-19T10:30:20;6.40;;;5.80;;
51236;SDS011;37312;47.550;18.818;2022-08-19T10:35:13;6.07;;;5.55;;
51236;SDS011;37312;47.550;18.818;2022-08-19T10:37:39;10.20;;;5.53;;
51236;SDS011;37312;47.550;18.818;2022-08-19T10:40:06;8.10;;;4.82;;
51236;SDS011;37312;47.550;18.818;2022-08-19T10:42:34;10.32;;;4.78;;
51236;SDS011;37312;47.550;18.818;2022-08-19T10:45:01;6.00;;;5.40;;
51236;SDS011;37312;47.550;18.818;2022-08-19T10:47:28;7.82;;;7.22;;
51236;SDS011;37312;47.550;18.818;2022-08-19T10:49:54;11.40;;;6.15;;
51236;SDS011;37312;47.550;18.818;2022-08-19T10:52:39;6.37;;;5.87;;
51236;SDS011;37312;47.550;18.818;2022-08-19T10:55:08;13.00;;;5.62;;
51236;SDS011;37312;47.550;18.818;2022-08-19T10:57:52;6.57;;;5.20;;
51236;SDS011;37312;47.550;18.818;2022-08-19T11:00:19;8.32;;;5.53;;
51236;SDS011;37312;47.550;18.818;2022-08-19T11:02:47;13.52;;;5.40;;
51236;SDS011;37312;47.550;18.818;2022-08-19T11:05:14;20.45;;;7.15;;
51236;SDS011;37312;47.550;18.818;2022-08-19T11:07:41;5.65;;;4.65;;
51236;SDS011;37312;47.550;18.818;2022-08-19T11:10:10;5.40;;;4.93;;
51236;SDS011;37312;47.550;18.818;2022-08-19T11:12:39;6.97;;;5.43;;
51236;SDS011;37312;47.550;18.818;2022-08-19T11:15:07;5.87;;;5.22;;
51236;SDS011;37312;47.550;18.818;2022-08-19T11:17:37;6.03;;;4.57;;
51236;SDS011;37312;47.550;18.818;2022-08-19T11:20:10;5.93;;;5.37;;
51236;SDS011;37312;47.550;18.818;2022-08-19T11:22:37;5.25;;;4.57;;
51236;SDS011;37312;47.550;18.818;2022-08-19T11:25:04;8.50;;;5.03;;
51236;SDS011;37312;47.550;18.818;2022-08-19T11:27:30;6.15;;;5.57;;
51236;SDS011;37312;47.550;18.818;2022-08-19T11:29:56;10.48;;;5.22;;
51236;SDS011;37312;47.550;18.818;2022-08-19T11:32:22;6.70;;;6.00;;
51236;SDS011;37312;47.550;18.818;2022-08-19T11:34:48;6.05;;;5.55;;
51236;SDS011;37312;47.550;18.818;2022-08-19T11:37:14;6.60;;;6.00;;
51236;SDS011;37312;47.550;18.818;2022-08-19T11:39:41;7.75;;;6.15;;
51236;SDS011;37312;47.550;18.818;2022-08-19T11:42:07;11.65;;;5.43;;
51236;SDS011;37312;47.550;18.818;2022-08-19T11:44:52;9.52;;;6.65;;
51236;SDS011;37312;47.550;18.818;2022-08-19T11:47:19;8.15;;;7.15;;
51236;SDS011;37312;47.550;18.818;2022-08-19T11:49:46;11.90;;;7.43;;
51236;SDS011;37312;47.550;18.818;2022-08-19T11:52:13;7.07;;;6.43;;
51236;SDS011;37312;47.550;18.818;2022-08-19T11:54:38;8.70;;;8.00;;
51236;SDS011;37312;47.550;18.818;2022-08-19T11:57:05;10.60;;;9.63;;
51236;SDS011;37312;47.550;18.818;2022-08-19T11:59:30;10.65;;;9.75;;
51236;SDS011;37312;47.550;18.818;2022-08-19T12:01:56;11.07;;;10.23;;
51236;SDS011;37312;47.550;18.818;2022-08-19T12:04:23;11.73;;;10.73;;
51236;SDS011;37312;47.550;18.818;2022-08-19T12:06:49;10.25;;;9.52;;
51236;SDS011;37312;47.550;18.818;2022-08-19T12:09:15;10.38;;;9.63;;
51236;SDS011;37312;47.550;18.818;2022-08-19T12:11:42;11.93;;;10.73;;
51236;SDS011;37312;47.550;18.818;2022-08-19T12:14:10;14.77;;;11.60;;
51236;SDS011;37312;47.550;18.818;2022-08-19T12:16:37;15.07;;;13.65;;
51236;SDS011;37312;47.550;18.818;2022-08-19T12:19:03;17.05;;;13.30;;
51236;SDS011;37312;47.550;18.818;2022-08-19T12:21:31;13.77;;;12.52;;
51236;SDS011;37312;47.550;18.818;2022-08-19T12:23:59;18.67;;;13.38;;
51236;SDS011;37312;47.550;18.818;2022-08-19T12:26:27;14.10;;;11.60;;
51236;SDS011;37312;47.550;18.818;2022-08-19T12:28:55;16.87;;;13.02;;
51236;SDS011;37312;47.550;18.818;2022-08-19T12:31:21;12.30;;;11.27;;
51236;SDS011;37312;47.550;18.818;2022-08-19T12:33:47;16.20;;;14.57;;
51236;SDS011;37312;47.550;18.818;2022-08-19T12:36:13;14.73;;;13.32;;
51236;SDS011;37312;47.550;18.818;2022-08-19T12:38:41;14.13;;;12.88;;
51236;SDS011;37312;47.550;18.818;2022-08-19T12:41:09;20.58;;;16.75;;
51236;SDS011;37312;47.550;18.818;2022-08-19T12:43:37;17.95;;;16.27;;
51236;SDS011;37312;47.550;18.818;2022-08-19T12:46:04;14.15;;;13.02;;
51236;SDS011;37312;47.550;18.818;2022-08-19T12:48:33;15.35;;;14.13;;
51236;SDS011;37312;47.550;18.818;2022-08-19T12:50:59;16.00;;;14.73;;
51236;SDS011;37312;47.550;18.818;2022-08-19T12:53:30;14.77;;;13.38;;
51236;SDS011;37312;47.550;18.818;2022-08-19T12:55:57;17.42;;;14.25;;
51236;SDS011;37312;47.550;18.818;2022-08-19T12:58:25;13.93;;;10.82;;
51236;SDS011;37312;47.550;18.818;2022-08-19T13:00:52;13.15;;;11.55;;
51236;SDS011;37312;47.550;18.818;2022-08-19T13:03:18;14.32;;;12.88;;
51236;SDS011;37312;47.550;18.818;2022-08-19T13:05:44;15.82;;;13.07;;
51236;SDS011;37312;47.550;18.818;2022-08-19T13:08:10;12.30;;;11.20;;
51236;SDS011;37312;47.550;18.818;2022-08-19T13:10:37;13.55;;;12.18;;
51236;SDS011;37312;47.550;18.818;2022-08-19T13:13:05;11.07;;;10.02;;
51236;SDS011;37312;47.550;18.818;2022-08-19T13:15:33;9.90;;;8.95;;
51236;SDS011;37312;47.550;18.818;2022-08-19T13:18:01;9.45;;;6.95;;
51236;SDS011;37312;47.550;18.818;2022-08-19T13:20:27;20.48;;;7.93;;
51236;SDS011;37312;47.550;18.818;2022-08-19T13:22:53;7.25;;;6.32;;
51236;SDS011;37312;47.550;18.818;2022-08-19T13:25:20;16.77;;;6.28;;
51236;SDS011;37312;47.550;18.818;2022-08-19T13:27:47;6.53;;;5.82;;
51236;SDS011;37312;47.550;18.818;2022-08-19T13:30:15;6.57;;;5.40;;
51236;SDS011;37312;47.550;18.818;2022-08-19T13:33:01;7.35;;;4.97;;
51236;SDS011;37312;47.550;18.818;2022-08-19T13:40:49;5.57;;;4.72;;
51236;SDS011;37312;47.550;18.818;2022-08-19T13:43:18;4.50;;;4.00;;
51236;SDS011;37312;47.550;18.818;2022-08-19T13:45:47;5.75;;;4.05;;
51236;SDS011;37312;47.550;18.818;2022-08-19T13:48:14;8.13;;;4.68;;
51236;SDS011;37312;47.550;18.818;2022-08-19T13:50:41;4.68;;;4.15;;
51236;SDS011;37312;47.550;18.818;2022-08-19T13:53:10;8.32;;;3.97;;
51236;SDS011;37312;47.550;18.818;2022-08-19T13:55:40;6.03;;;4.55;;
51236;SDS011;37312;47.550;18.818;2022-08-19T13:58:08;7.30;;;4.47;;
51236;SDS011;37312;47.550;18.818;2022-08-19T14:00:38;7.53;;;3.70;;
51236;SDS011;37312;47.550;18.818;2022-08-19T14:03:08;9.52;;;5.00;;
51236;SDS011;37312;47.550;18.818;2022-08-19T14:05:34;7.03;;;4.90;;
51236;SDS011;37312;47.550;18.818;2022-08-19T14:08:01;5.70;;;4.05;;
51236;SDS011;37312;47.550;18.818;2022-08-19T14:10:27;7.25;;;4.47;;
51236;SDS011;37312;47.550;18.818;2022-08-19T14:12:54;9.02;;;5.57;;
51236;SDS011;37312;47.550;18.818;2022-08-19T14:15:23;7.90;;;4.95;;
51236;SDS011;37312;47.550;18.818;2022-08-19T14:17:50;9.20;;;3.80;;
51236;SDS011;37312;47.550;18.818;2022-08-19T14:20:17;11.88;;;3.80;;
51236;SDS011;37312;47.550;18.818;2022-08-19T14:22:46;11.88;;;4.32;;
51236;SDS011;37312;47.550;18.818;2022-08-19T14:25:14;6.78;;;3.28;;
51236;SDS011;37312;47.550;18.818;2022-08-19T14:27:43;7.65;;;4.03;;
51236;SDS011;37312;47.550;18.818;2022-08-19T14:30:11;5.50;;;3.10;;
51236;SDS011;37312;47.550;18.818;2022-08-19T14:32:39;3.42;;;3.03;;
51236;SDS011;37312;47.550;18.818;2022-08-19T14:35:05;4.95;;;3.17;;
51236;SDS011;37312;47.550;18.818;2022-08-19T14:37:33;6.47;;;2.85;;
51236;SDS011;37312;47.550;18.818;2022-08-19T14:39:59;7.12;;;2.40;;
51236;SDS011;37312;47.550;18.818;2022-08-19T14:42:26;7.60;;;2.45;;
51236;SDS011;37312;47.550;18.818;2022-08-19T14:44:52;8.82;;;2.58;;
51236;SDS011;37312;47.550;18.818;2022-08-19T14:47:18;3.53;;;2.40;;
51236;SDS011;37312;47.550;18.818;2022-08-19T14:49:44;9.77;;;3.58;;
51236;SDS011;37312;47.550;18.818;2022-08-19T14:52:10;6.90;;;3.12;;
51236;SDS011;37312;47.550;18.818;2022-08-19T14:54:36;6.55;;;2.97;;
51236;SDS011;37312;47.550;18.818;2022-08-19T14:57:01;4.68;;;2.22;;
51236;SDS011;37312;47.550;18.818;2022-08-19T14:59:27;6.20;;;2.45;;